sensor_id;sensor_type;location;lat;lon;timestamp;pressure;altitude;pressure_sealevel;temperature;humidity
77207;BME280;66190;50.708;7.906;2024-01-30T00:02:16;97509.66;;;6.21;89.90
77207;BME280;66190;50.708;7.906;2024-01-30T00:04:42;97515.53;;;6.25;90.54
77207;BME280;66190;50.708;7.906;2024-01-30T00:07:07;97520.81;;;6.17;90.37
77207;BME280;66190;50.708;7.906;2024-01-30T00:09:33;97513.44;;;6.19;91.15
77207;BME280;66190;50.708;7.906;2024-01-30T00:11:59;97508.50;;;6.24;90.44
77207;BME280;66190;50.708;7.906;2024-01-30T00:14:24;97512.16;;;6.23;90.39
77207;BME280;66190;50.708;7.906;2024-01-30T00:16:50;97504.69;;;6.26;90.48
77207;BME280;66190;50.708;7.906;2024-01-30T00:19:16;97503.03;;;6.25;90.17
77207;BME280;66190;50.708;7.906;2024-01-30T00:21:41;97503.47;;;6.21;90.20
77207;BME280;66190;50.708;7.906;2024-01-30T00:24:07;97505.75;;;6.16;89.76
77207;BME280;66190;50.708;7.906;2024-01-30T00:26:32;97499.69;;;6.14;90.13
77207;BME280;66190;50.708;7.906;2024-01-30T00:28:58;97511.81;;;6.35;93.67
77207;BME280;66190;50.708;7.906;2024-01-30T00:31:24;97508.53;;;6.59;94.86
77207;BME280;66190;50.708;7.906;2024-01-30T00:33:49;97502.44;;;6.66;93.12
77207;BME280;66190;50.708;7.906;2024-01-30T00:36:14;97501.34;;;6.42;90.26
77207;BME280;66190;50.708;7.906;2024-01-30T00:38:40;97509.44;;;6.32;90.65
77207;BME280;66190;50.708;7.906;2024-01-30T00:41:07;97509.69;;;6.39;90.63
77207;BME280;66190;50.708;7.906;2024-01-30T00:43:33;97511.19;;;6.41;90.48
77207;BME280;66190;50.708;7.906;2024-01-30T00:45:59;97510.81;;;6.36;90.59
77207;BME280;66190;50.708;7.906;2024-01-30T00:48:24;97508.59;;;6.32;90.38
77207;BME280;66190;50.708;7.906;2024-01-30T00:50:49;97505.03;;;6.41;90.83
77207;BME280;66190;50.708;7.906;2024-01-30T00:53:15;97502.94;;;6.35;90.95
77207;BME280;66190;50.708;7.906;2024-01-30T00:55:40;97491.56;;;6.33;91.19
77207;BME280;66190;50.708;7.906;2024-01-30T00:58:06;97498.75;;;6.32;90.95
77207;BME280;66190;50.708;7.906;2024-01-30T01:00:32;97491.94;;;6.38;90.96
77207;BME280;66190;50.708;7.906;2024-01-30T01:03:00;97491.31;;;6.26;91.10
77207;BME280;66190;50.708;7.906;2024-01-30T01:05:26;97485.94;;;6.36;91.10
77207;BME280;66190;50.708;7.906;2024-01-30T01:07:51;97490.88;;;6.31;91.49
77207;BME280;66190;50.708;7.906;2024-01-30T01:10:17;97496.09;;;6.32;91.21
77207;BME280;66190;50.708;7.906;2024-01-30T01:12:43;97490.59;;;6.34;91.09
77207;BME280;66190;50.708;7.906;2024-01-30T01:15:09;97485.41;;;6.32;90.86
77207;BME280;66190;50.708;7.906;2024-01-30T01:17:38;97492.63;;;6.40;91.03
77207;BME280;66190;50.708;7.906;2024-01-30T01:20:05;97484.53;;;6.32;90.90
77207;BME280;66190;50.708;7.906;2024-01-30T01:22:31;97482.03;;;6.30;91.40
77207;BME280;66190;50.708;7.906;2024-01-30T01:24:58;97479.03;;;6.33;91.30
77207;BME280;66190;50.708;7.906;2024-01-30T01:27:24;97475.25;;;6.36;91.31
77207;BME280;66190;50.708;7.906;2024-01-30T01:29:49;97486.75;;;6.36;91.44
77207;BME280;66190;50.708;7.906;2024-01-30T01:32:14;97480.03;;;6.32;91.21
77207;BME280;66190;50.708;7.906;2024-01-30T01:34:40;97479.50;;;6.29;91.56
77207;BME280;66190;50.708;7.906;2024-01-30T01:37:05;97481.41;;;6.36;91.31
77207;BME280;66190;50.708;7.906;2024-01-30T01:39:31;97474.78;;;6.40;91.19
77207;BME280;66190;50.708;7.906;2024-01-30T01:41:56;97475.09;;;6.37;91.01
77207;BME280;66190;50.708;7.906;2024-01-30T01:44:21;97479.44;;;6.38;91.20
77207;BME280;66190;50.708;7.906;2024-01-30T01:46:47;97475.25;;;6.36;91.21
77207;BME280;66190;50.708;7.906;2024-01-30T01:49:13;97480.16;;;6.31;91.73
77207;BME280;66190;50.708;7.906;2024-01-30T01:51:39;97476.44;;;6.41;91.20
77207;BME280;66190;50.708;7.906;2024-01-30T01:54:06;97481.25;;;6.38;90.74
77207;BME280;66190;50.708;7.906;2024-01-30T01:56:33;97481.41;;;6.36;91.35
77207;BME280;66190;50.708;7.906;2024-01-30T01:59:04;97477.06;;;6.35;90.87
77207;BME280;66190;50.708;7.906;2024-01-30T02:01:31;97473.84;;;6.32;91.79
77207;BME280;66190;50.708;7.906;2024-01-30T02:03:58;97471.03;;;6.33;91.59
77207;BME280;66190;50.708;7.906;2024-01-30T02:06:24;97468.34;;;6.33;91.64
77207;BME280;66190;50.708;7.906;2024-01-30T02:08:49;97463.47;;;6.29;91.61
77207;BME280;66190;50.708;7.906;2024-01-30T02:11:15;97466.59;;;6.24;92.13
77207;BME280;66190;50.708;7.906;2024-01-30T02:13:42;97468.41;;;6.24;91.93
77207;BME280;66190;50.708;7.906;2024-01-30T02:16:07;97469.41;;;6.23;91.41
77207;BME280;66190;50.708;7.906;2024-01-30T02:18:32;97466.28;;;6.27;91.89
77207;BME280;66190;50.708;7.906;2024-01-30T02:23:27;97470.41;;;6.22;90.83
77207;BME280;66190;50.708;7.906;2024-01-30T02:25:52;97472.00;;;6.15;91.67
77207;BME280;66190;50.708;7.906;2024-01-30T02:28:18;97472.56;;;6.18;91.30
77207;BME280;66190;50.708;7.906;2024-01-30T02:30:44;97470.69;;;6.19;91.57
77207;BME280;66190;50.708;7.906;2024-01-30T02:33:10;97469.88;;;6.18;92.09
77207;BME280;66190;50.708;7.906;2024-01-30T02:35:35;97477.88;;;6.18;91.40
77207;BME280;66190;50.708;7.906;2024-01-30T02:38:01;97474.91;;;6.21;91.03
77207;BME280;66190;50.708;7.906;2024-01-30T02:40:26;97474.06;;;6.21;91.76
77207;BME280;66190;50.708;7.906;2024-01-30T02:42:51;97468.34;;;6.16;91.36
77207;BME280;66190;50.708;7.906;2024-01-30T02:45:17;97468.88;;;6.19;90.98
77207;BME280;66190;50.708;7.906;2024-01-30T02:47:43;97475.38;;;6.17;90.78
77207;BME280;66190;50.708;7.906;2024-01-30T02:50:08;97464.53;;;6.18;90.62
77207;BME280;66190;50.708;7.906;2024-01-30T02:52:34;97465.81;;;6.14;90.16
77207;BME280;66190;50.708;7.906;2024-01-30T02:54:59;97459.03;;;6.20;90.72
77207;BME280;66190;50.708;7.906;2024-01-30T02:57:25;97454.28;;;6.14;91.19
77207;BME280;66190;50.708;7.906;2024-01-30T02:59:51;97453.59;;;6.12;91.43
77207;BME280;66190;50.708;7.906;2024-01-30T03:02:16;97452.75;;;6.11;91.38
77207;BME280;66190;50.708;7.906;2024-01-30T03:04:41;97455.88;;;6.07;91.51
77207;BME280;66190;50.708;7.906;2024-01-30T03:07:07;97451.91;;;6.11;91.51
77207;BME280;66190;50.708;7.906;2024-01-30T03:09:33;97446.19;;;6.06;91.97
77207;BME280;66190;50.708;7.906;2024-01-30T03:11:58;97448.31;;;6.02;92.02
77207;BME280;66190;50.708;7.906;2024-01-30T03:14:24;97439.75;;;5.99;92.57
77207;BME280;66190;50.708;7.906;2024-01-30T03:16:49;97451.03;;;5.93;92.77
77207;BME280;66190;50.708;7.906;2024-01-30T03:19:15;97444.78;;;6.02;93.31
77207;BME280;66190;50.708;7.906;2024-01-30T03:21:40;97450.84;;;6.04;93.04
77207;BME280;66190;50.708;7.906;2024-01-30T03:24:05;97441.16;;;6.03;93.13
77207;BME280;66190;50.708;7.906;2024-01-30T03:26:31;97450.13;;;6.02;92.86
77207;BME280;66190;50.708;7.906;2024-01-30T03:28:56;97440.78;;;5.98;93.44
77207;BME280;66190;50.708;7.906;2024-01-30T03:31:22;97435.53;;;5.96;93.90
77207;BME280;66190;50.708;7.906;2024-01-30T03:33:47;97446.19;;;6.06;93.57
77207;BME280;66190;50.708;7.906;2024-01-30T03:36:13;97437.56;;;6.12;93.56
77207;BME280;66190;50.708;7.906;2024-01-30T03:38:38;97437.13;;;6.16;93.44
77207;BME280;66190;50.708;7.906;2024-01-30T03:41:07;97441.91;;;6.13;93.68
77207;BME280;66190;50.708;7.906;2024-01-30T03:43:33;97439.63;;;6.18;93.56
77207;BME280;66190;50.708;7.906;2024-01-30T03:45:59;97442.31;;;6.18;93.80
77207;BME280;66190;50.708;7.906;2024-01-30T03:48:24;97437.03;;;6.26;93.31
77207;BME280;66190;50.708;7.906;2024-01-30T03:50:50;97430.88;;;6.25;93.47
77207;BME280;66190;50.708;7.906;2024-01-30T03:53:17;97429.63;;;6.20;93.02
77207;BME280;66190;50.708;7.906;2024-01-30T03:55:42;97429.16;;;6.24;92.88
77207;BME280;66190;50.708;7.906;2024-01-30T03:58:08;97432.00;;;6.23;93.16
77207;BME280;66190;50.708;7.906;2024-01-30T04:00:33;97429.47;;;6.21;93.08
77207;BME280;66190;50.708;7.906;2024-01-30T04:02:58;97422.47;;;6.20;93.14
77207;BME280;66190;50.708;7.906;2024-01-30T04:05:24;97432.53;;;6.26;92.88
77207;BME280;66190;50.708;7.906;2024-01-30T04:07:49;97427.88;;;6.28;92.96
77207;BME280;66190;50.708;7.906;2024-01-30T04:10:14;97433.38;;;6.27;93.73
77207;BME280;66190;50.708;7.906;2024-01-30T04:12:40;97428.41;;;6.32;93.53
77207;BME280;66190;50.708;7.906;2024-01-30T04:15:05;97427.78;;;6.38;93.34
77207;BME280;66190;50.708;7.906;2024-01-30T04:17:31;97427.66;;;6.39;92.88
77207;BME280;66190;50.708;7.906;2024-01-30T04:19:56;97426.50;;;6.42;92.94
77207;BME280;66190;50.708;7.906;2024-01-30T04:22:22;97430.47;;;6.38;93.01
77207;BME280;66190;50.708;7.906;2024-01-30T04:24:47;97431.63;;;6.35;92.28
77207;BME280;66190;50.708;7.906;2024-01-30T04:27:12;97429.28;;;6.32;93.00
77207;BME280;66190;50.708;7.906;2024-01-30T04:29:38;97424.75;;;6.33;92.88
77207;BME280;66190;50.708;7.906;2024-01-30T04:32:04;97428.84;;;6.27;92.72
77207;BME280;66190;50.708;7.906;2024-01-30T04:34:29;97424.69;;;6.25;93.46
77207;BME280;66190;50.708;7.906;2024-01-30T04:36:54;97428.84;;;6.27;93.18
77207;BME280;66190;50.708;7.906;2024-01-30T04:39:20;97433.28;;;6.19;93.45
77207;BME280;66190;50.708;7.906;2024-01-30T04:41:45;97432.00;;;6.23;93.25
77207;BME280;66190;50.708;7.906;2024-01-30T04:44:11;97436.34;;;6.24;93.38
77207;BME280;66190;50.708;7.906;2024-01-30T04:46:36;97436.22;;;6.25;93.71
77207;BME280;66190;50.708;7.906;2024-01-30T04:49:01;97430.25;;;6.31;93.52
77207;BME280;66190;50.708;7.906;2024-01-30T04:51:28;97418.97;;;6.37;93.65
77207;BME280;66190;50.708;7.906;2024-01-30T04:53:54;97424.69;;;6.42;93.26
77207;BME280;66190;50.708;7.906;2024-01-30T04:56:20;97424.53;;;6.44;93.03
77207;BME280;66190;50.708;7.906;2024-01-30T04:58:45;97418.47;;;6.42;93.10
77207;BME280;66190;50.708;7.906;2024-01-30T05:01:15;97416.03;;;6.48;93.13
77207;BME280;66190;50.708;7.906;2024-01-30T05:03:41;97423.34;;;6.46;92.79
77207;BME280;66190;50.708;7.906;2024-01-30T05:06:06;97425.75;;;6.49;92.83
77207;BME280;66190;50.708;7.906;2024-01-30T05:08:32;97426.19;;;6.45;93.32
77207;BME280;66190;50.708;7.906;2024-01-30T05:11:00;97423.66;;;6.43;93.45
77207;BME280;66190;50.708;7.906;2024-01-30T05:13:25;97431.38;;;6.46;93.28
77207;BME280;66190;50.708;7.906;2024-01-30T05:15:51;97430.25;;;6.49;93.44
77207;BME280;66190;50.708;7.906;2024-01-30T05:18:16;97430.63;;;6.54;93.06
77207;BME280;66190;50.708;7.906;2024-01-30T05:20:42;97424.22;;;6.47;93.63
77207;BME280;66190;50.708;7.906;2024-01-30T05:23:07;97427.78;;;6.55;93.61
77207;BME280;66190;50.708;7.906;2024-01-30T05:25:33;97419.06;;;6.53;93.24
77207;BME280;66190;50.708;7.906;2024-01-30T05:27:58;97429.78;;;6.53;93.56
77207;BME280;66190;50.708;7.906;2024-01-30T05:30:24;97424.97;;;6.57;93.47
77207;BME280;66190;50.708;7.906;2024-01-30T05:32:49;97428.78;;;6.54;93.43
77207;BME280;66190;50.708;7.906;2024-01-30T05:35:14;97430.31;;;6.57;93.10
77207;BME280;66190;50.708;7.906;2024-01-30T05:37:40;97428.94;;;6.53;93.70
77207;BME280;66190;50.708;7.906;2024-01-30T05:40:06;97423.81;;;6.59;93.47
77207;BME280;66190;50.708;7.906;2024-01-30T05:42:31;97421.63;;;6.55;93.49
77207;BME280;66190;50.708;7.906;2024-01-30T05:44:57;97421.63;;;6.55;93.76
77207;BME280;66190;50.708;7.906;2024-01-30T05:47:22;97422.91;;;6.51;93.82
77207;BME280;66190;50.708;7.906;2024-01-30T05:49:48;97420.94;;;6.53;93.92
77207;BME280;66190;50.708;7.906;2024-01-30T05:52:13;97415.09;;;6.57;93.89
77207;BME280;66190;50.708;7.906;2024-01-30T05:54:40;97415.97;;;6.58;93.74
77207;BME280;66190;50.708;7.906;2024-01-30T05:57:05;97406.94;;;6.59;93.86
77207;BME280;66190;50.708;7.906;2024-01-30T05:59:31;97406.78;;;6.60;93.51
77207;BME280;66190;50.708;7.906;2024-01-30T06:01:57;97398.91;;;6.59;93.65
77207;BME280;66190;50.708;7.906;2024-01-30T06:04:23;97404.94;;;6.61;94.01
77207;BME280;66190;50.708;7.906;2024-01-30T06:06:48;97400.66;;;6.68;93.32
77207;BME280;66190;50.708;7.906;2024-01-30T06:09:13;97411.31;;;6.60;93.49
77207;BME280;66190;50.708;7.906;2024-01-30T06:11:39;97409.06;;;6.55;93.68
77207;BME280;66190;50.708;7.906;2024-01-30T06:14:05;97419.47;;;6.58;93.54
77207;BME280;66190;50.708;7.906;2024-01-30T06:16:30;97414.91;;;6.51;93.85
77207;BME280;66190;50.708;7.906;2024-01-30T06:18:56;97408.25;;;6.55;93.54
77207;BME280;66190;50.708;7.906;2024-01-30T06:21:21;97412.16;;;6.43;93.56
77207;BME280;66190;50.708;7.906;2024-01-30T06:23:47;97411.63;;;6.39;94.02
77207;BME280;66190;50.708;7.906;2024-01-30T06:26:12;97416.19;;;6.47;94.23
77207;BME280;66190;50.708;7.906;2024-01-30T06:28:38;97413.84;;;6.44;94.24
77207;BME280;66190;50.708;7.906;2024-01-30T06:31:03;97411.00;;;6.45;94.09
77207;BME280;66190;50.708;7.906;2024-01-30T06:33:28;97406.56;;;6.54;94.41
77207;BME280;66190;50.708;7.906;2024-01-30T06:35:54;97414.41;;;6.55;93.73
77207;BME280;66190;50.708;7.906;2024-01-30T06:38:19;97413.06;;;6.51;94.10
77207;BME280;66190;50.708;7.906;2024-01-30T06:40:45;97415.06;;;6.49;93.70
77207;BME280;66190;50.708;7.906;2024-01-30T06:43:10;97421.38;;;6.48;93.65
77207;BME280;66190;50.708;7.906;2024-01-30T06:45:36;97418.69;;;6.48;94.19
77207;BME280;66190;50.708;7.906;2024-01-30T06:48:02;97419.72;;;6.47;93.72
77207;BME280;66190;50.708;7.906;2024-01-30T06:50:28;97417.88;;;6.48;93.64
77207;BME280;66190;50.708;7.906;2024-01-30T06:52:53;97416.88;;;6.49;93.90
77207;BME280;66190;50.708;7.906;2024-01-30T06:55:19;97412.16;;;6.43;94.06
77207;BME280;66190;50.708;7.906;2024-01-30T06:57:44;97416.50;;;6.44;94.07
77207;BME280;66190;50.708;7.906;2024-01-30T07:00:10;97411.63;;;6.39;93.91
77207;BME280;66190;50.708;7.906;2024-01-30T07:02:35;97419.66;;;6.39;94.10
77207;BME280;66190;50.708;7.906;2024-01-30T07:05:01;97428.63;;;6.38;94.38
77207;BME280;66190;50.708;7.906;2024-01-30T07:07:27;97420.63;;;6.38;94.34
77207;BME280;66190;50.708;7.906;2024-01-30T07:09:54;97417.88;;;6.48;94.05
77207;BME280;66190;50.708;7.906;2024-01-30T07:12:22;97418.16;;;6.45;93.74
77207;BME280;66190;50.708;7.906;2024-01-30T07:14:47;97423.88;;;6.50;93.71
77207;BME280;66190;50.708;7.906;2024-01-30T07:17:13;97420.56;;;6.48;93.79
77207;BME280;66190;50.708;7.906;2024-01-30T07:19:39;97422.75;;;6.52;93.06
77207;BME280;66190;50.708;7.906;2024-01-30T07:22:04;97432.59;;;6.52;93.85
77207;BME280;66190;50.708;7.906;2024-01-30T07:24:29;97432.31;;;6.55;93.67
77207;BME280;66190;50.708;7.906;2024-01-30T07:26:55;97428.94;;;6.53;93.73
77207;BME280;66190;50.708;7.906;2024-01-30T07:29:20;97429.09;;;6.51;93.48
77207;BME280;66190;50.708;7.906;2024-01-30T07:31:47;97437.66;;;6.55;93.43
77207;BME280;66190;50.708;7.906;2024-01-30T07:34:12;97434.84;;;6.56;93.55
77207;BME280;66190;50.708;7.906;2024-01-30T07:36:37;97440.19;;;6.56;93.44
77207;BME280;66190;50.708;7.906;2024-01-30T07:39:03;97441.31;;;6.54;93.32
77207;BME280;66190;50.708;7.906;2024-01-30T07:41:28;97442.84;;;6.56;93.35
77207;BME280;66190;50.708;7.906;2024-01-30T07:43:53;97443.38;;;6.60;93.41
77207;BME280;66190;50.708;7.906;2024-01-30T07:46:19;97445.22;;;6.59;93.48
77207;BME280;66190;50.708;7.906;2024-01-30T07:48:44;97444.06;;;6.62;93.48
77207;BME280;66190;50.708;7.906;2024-01-30T07:51:09;97442.97;;;6.72;93.28
77207;BME280;66190;50.708;7.906;2024-01-30T07:53:35;97436.69;;;6.81;92.77
77207;BME280;66190;50.708;7.906;2024-01-30T07:56:00;97442.25;;;6.88;92.51
77207;BME280;66190;50.708;7.906;2024-01-30T07:58:26;97438.22;;;6.84;92.47
77207;BME280;66190;50.708;7.906;2024-01-30T08:00:53;97448.81;;;6.93;91.79
77207;BME280;66190;50.708;7.906;2024-01-30T08:03:18;97442.66;;;6.93;91.90
77207;BME280;66190;50.708;7.906;2024-01-30T08:05:44;97447.47;;;6.89;92.07
77207;BME280;66190;50.708;7.906;2024-01-30T08:08:09;97441.28;;;6.89;92.18
77207;BME280;66190;50.708;7.906;2024-01-30T08:10:35;97448.97;;;6.92;92.11
77207;BME280;66190;50.708;7.906;2024-01-30T08:13:01;97450.00;;;6.91;92.27
77207;BME280;66190;50.708;7.906;2024-01-30T08:15:27;97456.25;;;7.00;91.79
77207;BME280;66190;50.708;7.906;2024-01-30T08:17:52;97460.28;;;7.04;91.78
77207;BME280;66190;50.708;7.906;2024-01-30T08:20:23;97467.84;;;7.08;91.83
77207;BME280;66190;50.708;7.906;2024-01-30T08:22:48;97467.16;;;7.06;91.26
77207;BME280;66190;50.708;7.906;2024-01-30T08:25:14;97460.88;;;7.15;91.11
77207;BME280;66190;50.708;7.906;2024-01-30T08:27:39;97457.13;;;7.08;91.57
77207;BME280;66190;50.708;7.906;2024-01-30T08:30:06;97461.47;;;7.09;91.68
77207;BME280;66190;50.708;7.906;2024-01-30T08:32:32;97459.50;;;7.11;91.62
77207;BME280;66190;50.708;7.906;2024-01-30T08:34:57;97465.69;;;7.12;91.26
77207;BME280;66190;50.708;7.906;2024-01-30T08:37:23;97458.50;;;7.12;91.37
77207;BME280;66190;50.708;7.906;2024-01-30T08:39:48;97462.91;;;7.21;91.17
77207;BME280;66190;50.708;7.906;2024-01-30T08:42:14;97455.63;;;7.31;90.85
77207;BME280;66190;50.708;7.906;2024-01-30T08:44:39;97451.56;;;7.27;90.87
77207;BME280;66190;50.708;7.906;2024-01-30T08:47:05;97444.63;;;7.42;90.47
77207;BME280;66190;50.708;7.906;2024-01-30T08:49:31;97455.50;;;7.41;90.22
77207;BME280;66190;50.708;7.906;2024-01-30T08:51:56;97454.06;;;7.88;93.99
77207;BME280;66190;50.708;7.906;2024-01-30T08:54:22;97453.56;;;7.92;90.53
77207;BME280;66190;50.708;7.906;2024-01-30T08:56:48;97449.22;;;7.99;88.46
77207;BME280;66190;50.708;7.906;2024-01-30T08:59:13;97457.00;;;7.77;88.29
77207;BME280;66190;50.708;7.906;2024-01-30T09:01:38;97455.78;;;7.63;89.14
77207;BME280;66190;50.708;7.906;2024-01-30T09:04:04;97453.09;;;7.63;89.33
77207;BME280;66190;50.708;7.906;2024-01-30T09:06:29;97452.13;;;7.64;89.33
77207;BME280;66190;50.708;7.906;2024-01-30T09:08:54;97447.22;;;7.60;89.42
77207;BME280;66190;50.708;7.906;2024-01-30T09:11:20;97440.31;;;7.49;90.20
77207;BME280;66190;50.708;7.906;2024-01-30T09:13:45;97449.56;;;7.55;89.89
77207;BME280;66190;50.708;7.906;2024-01-30T09:16:11;97450.88;;;7.51;90.33
77207;BME280;66190;50.708;7.906;2024-01-30T09:18:36;97443.16;;;7.48;90.32
77207;BME280;66190;50.708;7.906;2024-01-30T09:21:02;97443.69;;;7.51;90.32
77207;BME280;66190;50.708;7.906;2024-01-30T09:23:27;97443.69;;;7.51;90.43
77207;BME280;66190;50.708;7.906;2024-01-30T09:25:53;97444.19;;;7.55;90.52
77207;BME280;66190;50.708;7.906;2024-01-30T09:28:18;97437.31;;;7.52;90.36
77207;BME280;66190;50.708;7.906;2024-01-30T09:30:44;97433.16;;;7.58;90.12
77207;BME280;66190;50.708;7.906;2024-01-30T09:33:09;97443.72;;;7.59;90.37
77207;BME280;66190;50.708;7.906;2024-01-30T09:35:36;97450.25;;;7.57;90.29
77207;BME280;66190;50.708;7.906;2024-01-30T09:38:01;97446.38;;;7.59;90.14
77207;BME280;66190;50.708;7.906;2024-01-30T09:40:27;97451.44;;;7.62;90.15
77207;BME280;66190;50.708;7.906;2024-01-30T09:42:53;97448.63;;;7.72;89.85
77207;BME280;66190;50.708;7.906;2024-01-30T09:45:20;97456.34;;;7.75;89.46
77207;BME280;66190;50.708;7.906;2024-01-30T09:47:48;97462.19;;;7.70;89.58
77207;BME280;66190;50.708;7.906;2024-01-30T09:50:14;97450.34;;;7.81;89.39
77207;BME280;66190;50.708;7.906;2024-01-30T09:52:40;97454.38;;;7.85;89.43
77207;BME280;66190;50.708;7.906;2024-01-30T09:55:07;97460.09;;;7.90;88.89
77207;BME280;66190;50.708;7.906;2024-01-30T09:57:34;97459.41;;;7.88;88.86
77207;BME280;66190;50.708;7.906;2024-01-30T09:59:59;97469.84;;;7.99;88.33
77207;BME280;66190;50.708;7.906;2024-01-30T10:02:24;97463.47;;;8.00;88.57
77207;BME280;66190;50.708;7.906;2024-01-30T10:04:51;97469.38;;;8.12;88.20
77207;BME280;66190;50.708;7.906;2024-01-30T10:07:17;97472.75;;;8.14;87.57
77207;BME280;66190;50.708;7.906;2024-01-30T10:09:43;97470.31;;;8.28;87.70
77207;BME280;66190;50.708;7.906;2024-01-30T10:12:12;97486.03;;;8.23;87.79
77207;BME280;66190;50.708;7.906;2024-01-30T10:14:41;97480.53;;;8.33;87.78
77207;BME280;66190;50.708;7.906;2024-01-30T10:17:10;97471.97;;;8.29;87.83
77207;BME280;66190;50.708;7.906;2024-01-30T10:19:36;97471.81;;;8.31;87.83
77207;BME280;66190;50.708;7.906;2024-01-30T10:22:05;97478.38;;;8.36;87.70
77207;BME280;66190;50.708;7.906;2024-01-30T10:24:30;97479.03;;;8.38;87.51
77207;BME280;66190;50.708;7.906;2024-01-30T10:26:56;97472.50;;;8.33;88.13
77207;BME280;66190;50.708;7.906;2024-01-30T10:29:22;97472.50;;;8.33;87.79
77207;BME280;66190;50.708;7.906;2024-01-30T10:32:04;97465.78;;;8.29;88.22
77207;BME280;66190;50.708;7.906;2024-01-30T10:34:30;97471.00;;;8.38;88.06
77207;BME280;66190;50.708;7.906;2024-01-30T10:37:00;97465.16;;;8.51;87.99
77207;BME280;66190;50.708;7.906;2024-01-30T10:39:31;97462.81;;;8.56;87.46
77207;BME280;66190;50.708;7.906;2024-01-30T10:42:03;97467.69;;;8.60;86.80
77207;BME280;66190;50.708;7.906;2024-01-30T10:44:37;97462.13;;;8.62;86.71
77207;BME280;66190;50.708;7.906;2024-01-30T10:47:11;97461.84;;;8.65;87.24
77207;BME280;66190;50.708;7.906;2024-01-30T10:49:41;97469.34;;;8.53;87.00
77207;BME280;66190;50.708;7.906;2024-01-30T10:52:08;97461.00;;;8.64;87.48
77207;BME280;66190;50.708;7.906;2024-01-30T10:54:34;97463.84;;;8.71;87.17
77207;BME280;66190;50.708;7.906;2024-01-30T10:57:01;97469.53;;;8.76;87.25
77207;BME280;66190;50.708;7.906;2024-01-30T10:59:30;97471.56;;;8.82;86.96
77207;BME280;66190;50.708;7.906;2024-01-30T11:01:57;97477.63;;;8.84;86.57
77207;BME280;66190;50.708;7.906;2024-01-30T11:04:24;97488.00;;;8.95;86.50
77207;BME280;66190;50.708;7.906;2024-01-30T11:06:50;97474.41;;;9.12;86.01
77207;BME280;66190;50.708;7.906;2024-01-30T11:09:17;97488.81;;;9.36;85.59
77207;BME280;66190;50.708;7.906;2024-01-30T11:11:56;97473.72;;;9.35;84.98
77207;BME280;66190;50.708;7.906;2024-01-30T11:14:27;97464.50;;;9.29;85.02
77207;BME280;66190;50.708;7.906;2024-01-30T11:16:52;97473.72;;;9.27;84.89
77207;BME280;66190;50.708;7.906;2024-01-30T11:19:30;97466.69;;;9.26;84.68
77207;BME280;66190;50.708;7.906;2024-01-30T11:21:56;97472.56;;;9.29;84.88
77207;BME280;66190;50.708;7.906;2024-01-30T11:24:23;97474.22;;;9.30;84.91
77207;BME280;66190;50.708;7.906;2024-01-30T11:26:59;97480.91;;;9.42;84.61
77207;BME280;66190;50.708;7.906;2024-01-30T11:29:25;97484.59;;;9.49;83.87
77207;BME280;66190;50.708;7.906;2024-01-30T11:31:54;97474.72;;;9.42;84.57
77207;BME280;66190;50.708;7.906;2024-01-30T11:34:20;97469.81;;;9.61;83.61
77207;BME280;66190;50.708;7.906;2024-01-30T11:36:58;97474.06;;;9.94;82.94
77207;BME280;66190;50.708;7.906;2024-01-30T11:39:25;97459.38;;;10.13;81.82
77207;BME280;66190;50.708;7.906;2024-01-30T11:41:52;97462.97;;;10.36;81.35
77207;BME280;66190;50.708;7.906;2024-01-30T11:44:19;97458.81;;;10.34;80.65
77207;BME280;66190;50.708;7.906;2024-01-30T11:46:47;97463.09;;;10.43;80.40
77207;BME280;66190;50.708;7.906;2024-01-30T11:49:12;97461.63;;;10.63;80.24
77207;BME280;66190;50.708;7.906;2024-01-30T11:51:38;97456.25;;;10.63;79.46
77207;BME280;66190;50.708;7.906;2024-01-30T11:54:03;97451.53;;;10.65;79.27
77207;BME280;66190;50.708;7.906;2024-01-30T11:56:29;97443.94;;;10.91;79.21
77207;BME280;66190;50.708;7.906;2024-01-30T11:58:54;97437.03;;;10.88;78.86
77207;BME280;66190;50.708;7.906;2024-01-30T12:01:20;97422.03;;;10.94;78.31
77207;BME280;66190;50.708;7.906;2024-01-30T12:03:50;97410.31;;;11.24;77.35
77207;BME280;66190;50.708;7.906;2024-01-30T12:06:15;97405.59;;;11.40;76.75
77207;BME280;66190;50.708;7.906;2024-01-30T12:08:41;97407.91;;;11.58;75.95
77207;BME280;66190;50.708;7.906;2024-01-30T12:11:07;97412.69;;;11.71;76.21
77207;BME280;66190;50.708;7.906;2024-01-30T12:13:32;97410.81;;;11.57;76.23
77207;BME280;66190;50.708;7.906;2024-01-30T12:15:58;97410.81;;;11.57;76.55
77207;BME280;66190;50.708;7.906;2024-01-30T12:18:24;97417.88;;;11.43;76.58
77207;BME280;66190;50.708;7.906;2024-01-30T12:20:59;97410.94;;;11.26;76.84
77207;BME280;66190;50.708;7.906;2024-01-30T12:23:26;97414.91;;;11.15;77.14
77207;BME280;66190;50.708;7.906;2024-01-30T12:25:52;97421.16;;;11.16;77.46
77207;BME280;66190;50.708;7.906;2024-01-30T12:28:17;97410.09;;;11.11;77.81
77207;BME280;66190;50.708;7.906;2024-01-30T12:30:43;97410.56;;;11.14;78.02
77207;BME280;66190;50.708;7.906;2024-01-30T12:33:08;97412.41;;;11.14;77.87
77207;BME280;66190;50.708;7.906;2024-01-30T12:35:35;97409.09;;;11.12;77.80
77207;BME280;66190;50.708;7.906;2024-01-30T12:38:01;97414.56;;;11.18;77.55
77207;BME280;66190;50.708;7.906;2024-01-30T12:40:27;97419.19;;;11.10;78.21
77207;BME280;66190;50.708;7.906;2024-01-30T12:42:53;97416.38;;;11.03;78.67
77207;BME280;66190;50.708;7.906;2024-01-30T12:45:19;97426.53;;;11.01;78.27
77207;BME280;66190;50.708;7.906;2024-01-30T12:47:47;97424.44;;;11.03;78.71
77207;BME280;66190;50.708;7.906;2024-01-30T12:50:12;97427.94;;;11.12;78.09
77207;BME280;66190;50.708;7.906;2024-01-30T12:52:41;97417.06;;;11.20;78.00
77207;BME280;66190;50.708;7.906;2024-01-30T12:55:06;97423.97;;;11.37;77.89
77207;BME280;66190;50.708;7.906;2024-01-30T12:57:32;97409.88;;;11.50;77.22
77207;BME280;66190;50.708;7.906;2024-01-30T12:59:57;97416.63;;;11.45;76.89
77207;BME280;66190;50.708;7.906;2024-01-30T13:02:23;97414.78;;;11.46;77.20
77207;BME280;66190;50.708;7.906;2024-01-30T13:04:49;97415.16;;;11.43;77.45
77207;BME280;66190;50.708;7.906;2024-01-30T13:07:14;97416.09;;;11.50;76.90